createdAt,value
2022-09-17T00:03:18.062Z,2.33
2022-09-17T00:08:30.840Z,3.60
2022-09-17T00:14:04.673Z,1.85
2022-09-17T00:19:21.494Z,5.40
2022-09-17T00:24:28.787Z,2.22
2022-09-17T00:29:32.784Z,1.30
2022-09-17T00:34:53.913Z,3.63
2022-09-17T00:45:40.622Z,2.87
2022-09-17T00:50:53.069Z,2.58
2022-09-17T00:56:05.906Z,3.03
2022-09-17T01:01:15.152Z,2.50
2022-09-17T01:06:33.227Z,2.80
2022-09-17T01:11:57.457Z,4.28
2022-09-17T01:17:14.991Z,2.60
2022-09-17T01:22:28.802Z,3.35
2022-09-17T01:28:15.696Z,2.97
2022-09-17T01:33:30.931Z,2.42
2022-09-17T01:38:47.558Z,3.10
2022-09-17T01:44:00.087Z,2.67
2022-09-17T01:49:22.935Z,2.92
2022-09-17T01:54:34.998Z,3.50
2022-09-17T01:59:50.059Z,0.80
2022-09-17T02:05:04.572Z,1.13
2022-09-17T02:10:15.305Z,1.95
2022-09-17T02:15:25.608Z,2.60
2022-09-17T02:20:42.034Z,2.10
2022-09-17T02:26:08.200Z,2.22
2022-09-17T02:31:14.272Z,1.45
2022-09-17T02:36:28.837Z,1.23
2022-09-17T02:41:48.435Z,1.02
2022-09-17T02:47:26.009Z,0.70
2022-09-17T02:52:46.036Z,1.05
2022-09-17T02:58:00.876Z,0.50
2022-09-17T03:03:14.994Z,0.50
2022-09-17T03:08:21.379Z,0.40
2022-09-17T03:13:28.498Z,0.55
2022-09-17T03:18:35.954Z,0.95
2022-09-17T03:23:50.228Z,0.70
2022-09-17T03:28:55.016Z,1.02
2022-09-17T03:34:02.351Z,0.25
2022-09-17T03:39:26.806Z,1.20
2022-09-17T03:44:39.040Z,0.55
2022-09-17T03:49:51.463Z,0.63
2022-09-17T03:55:05.018Z,1.00
2022-09-17T04:00:23.762Z,0.40
2022-09-17T04:05:36.518Z,1.10
2022-09-17T04:11:12.928Z,1.27
2022-09-17T04:16:33.123Z,0.35
2022-09-17T04:21:46.775Z,1.23
2022-09-17T04:32:35.532Z,1.70
2022-09-17T04:38:01.626Z,0.30
2022-09-17T04:43:11.979Z,0.75
2022-09-17T04:48:39.127Z,0.70
2022-09-17T04:53:47.503Z,0.73
2022-09-17T04:59:12.772Z,1.33
2022-09-17T05:04:35.538Z,1.33
2022-09-17T05:09:43.355Z,1.58
2022-09-17T05:15:09.767Z,3.80
2022-09-17T05:20:16.640Z,2.83
2022-09-17T05:25:24.765Z,1.25
2022-09-17T05:30:43.024Z,2.95
2022-09-17T05:35:51.752Z,2.67
2022-09-17T05:40:58.314Z,4.93
2022-09-17T05:47:06.944Z,7.43
2022-09-17T05:52:23.627Z,7.85
2022-09-17T05:57:31.893Z,4.35
2022-09-17T06:02:42.416Z,5.57
2022-09-17T06:07:51.684Z,3.53
2022-09-17T06:13:22.122Z,5.55
2022-09-17T06:18:41.564Z,7.82
2022-09-17T06:23:48.552Z,5.90
2022-09-17T06:29:16.530Z,8.43
2022-09-17T06:34:28.048Z,10.13
2022-09-17T06:40:00.198Z,7.18
2022-09-17T06:45:14.466Z,6.90
2022-09-17T06:50:32.788Z,6.70
2022-09-17T06:55:46.885Z,8.68
2022-09-17T07:00:58.292Z,9.82
2022-09-17T07:06:26.390Z,10.02
2022-09-17T07:11:34.031Z,9.23
2022-09-17T07:17:00.521Z,10.10
2022-09-17T07:22:07.309Z,6.65
2022-09-17T07:27:20.918Z,9.52
2022-09-17T07:32:28.647Z,7.93
2022-09-17T07:37:42.645Z,8.32
2022-09-17T07:42:52.835Z,7.38
2022-09-17T07:48:31.997Z,7.88
2022-09-17T07:54:03.869Z,2.92
2022-09-17T07:59:13.397Z,5.30
2022-09-17T08:04:17.422Z,6.93
2022-09-17T08:09:26.792Z,4.82
2022-09-17T08:20:04.063Z,6.65
2022-09-17T08:25:47.119Z,4.30
2022-09-17T08:30:52.104Z,6.25
2022-09-17T08:35:59.912Z,5.15
2022-09-17T08:41:26.208Z,5.57
2022-09-17T08:46:33.863Z,6.25
2022-09-17T08:51:46.745Z,5.22
2022-09-17T08:57:10.546Z,4.10
2022-09-17T09:02:30.141Z,8.63
2022-09-17T09:07:48.606Z,5.55
2022-09-17T09:13:01.031Z,5.60
2022-09-17T09:18:26.060Z,5.63
2022-09-17T09:24:04.042Z,5.22
2022-09-17T09:29:23.219Z,6.22
2022-09-17T09:34:46.433Z,7.30
2022-09-17T09:39:59.807Z,5.07
2022-09-17T09:45:20.588Z,9.38
2022-09-17T09:51:06.303Z,8.75
2022-09-17T09:56:47.808Z,6.30
2022-09-17T10:01:58.278Z,7.22
2022-09-17T10:07:15.023Z,6.20
2022-09-17T10:12:26.559Z,3.38
2022-09-17T10:17:45.182Z,5.35
2022-09-17T10:22:56.100Z,8.40
2022-09-17T10:28:06.109Z,6.53
2022-09-17T10:33:29.901Z,6.95
2022-09-17T10:39:06.544Z,6.00
2022-09-17T10:44:22.583Z,6.38
2022-09-17T10:49:43.577Z,7.10
2022-09-17T10:55:26.059Z,4.28
2022-09-17T11:00:48.243Z,7.80
2022-09-17T11:06:24.745Z,6.10
2022-09-17T11:11:46.922Z,7.43
2022-09-17T11:17:29.548Z,5.13
2022-09-17T11:23:09.111Z,4.47
2022-09-17T11:28:42.979Z,5.70
2022-09-17T11:34:23.107Z,6.85
2022-09-17T11:39:40.939Z,4.03
2022-09-17T11:44:56.508Z,4.18
2022-09-17T11:50:16.043Z,4.25
2022-09-17T11:55:34.238Z,7.30
2022-09-17T12:00:50.401Z,5.43
2022-09-17T12:06:03.076Z,6.15
2022-09-17T12:11:17.736Z,7.28
2022-09-17T12:16:32.362Z,6.88
2022-09-17T12:21:46.300Z,5.45
2022-09-17T12:27:30.846Z,3.95
2022-09-17T12:32:58.589Z,8.25
2022-09-17T12:38:23.132Z,5.57
2022-09-17T12:44:27.055Z,9.30
2022-09-17T12:49:54.820Z,8.32
2022-09-17T12:55:23.980Z,7.15
2022-09-17T13:00:39.536Z,4.68
2022-09-17T13:06:03.962Z,8.13
2022-09-17T13:11:59.293Z,5.50
2022-09-17T13:17:14.515Z,5.13
2022-09-17T13:22:23.072Z,5.25
2022-09-17T13:27:36.059Z,5.95
2022-09-17T13:32:55.303Z,3.88
2022-09-17T13:38:05.477Z,6.85
2022-09-17T13:43:19.523Z,7.97
2022-09-17T13:48:36.048Z,5.35
2022-09-17T13:54:10.659Z,4.47
2022-09-17T13:59:23.113Z,6.38
2022-09-17T14:10:49.297Z,4.07
2022-09-17T14:16:11.314Z,2.90
2022-09-17T14:21:36.227Z,6.45
2022-09-17T14:26:58.322Z,5.20
2022-09-17T14:32:06.337Z,5.53
2022-09-17T14:37:19.032Z,4.25
2022-09-17T14:42:42.775Z,5.70
2022-09-17T14:47:57.429Z,4.40
2022-09-17T14:53:17.916Z,4.38
2022-09-17T14:58:46.440Z,4.45
2022-09-17T15:03:54.768Z,3.25
2022-09-17T15:09:05.751Z,7.68
2022-09-17T15:14:25.429Z,5.55
2022-09-17T15:19:41.067Z,2.38
2022-09-17T15:24:51.852Z,2.92
2022-09-17T15:30:05.001Z,4.03
2022-09-17T15:35:20.501Z,2.97
2022-09-17T15:40:33.127Z,2.85
2022-09-17T15:45:43.094Z,4.93
2022-09-17T15:51:05.374Z,5.75
2022-09-17T15:56:32.684Z,2.67
2022-09-17T16:02:00.491Z,5.60
2022-09-17T16:07:34.827Z,3.38
2022-09-17T16:12:49.493Z,2.70
2022-09-17T16:17:57.866Z,3.90
2022-09-17T16:23:02.920Z,5.18
2022-09-17T16:28:15.480Z,4.35
2022-09-17T16:33:29.138Z,2.78
2022-09-17T16:38:52.390Z,2.35
2022-09-17T16:44:04.091Z,3.15
2022-09-17T16:49:13.869Z,4.60
2022-09-17T16:54:32.298Z,7.18
2022-09-17T16:59:58.755Z,5.40
2022-09-17T17:05:09.734Z,4.40
2022-09-17T17:10:28.087Z,8.38
2022-09-17T17:15:40.298Z,4.78
2022-09-17T17:20:48.392Z,5.53
2022-09-17T17:25:57.066Z,5.40
2022-09-17T17:31:08.486Z,4.65
2022-09-17T17:36:23.693Z,3.28
2022-09-17T17:41:36.654Z,5.22
2022-09-17T17:46:44.534Z,4.63
2022-09-17T17:51:54.941Z,6.15
2022-09-17T17:57:12.149Z,2.97
2022-09-17T18:02:24.568Z,3.65
2022-09-17T18:07:31.796Z,5.83
2022-09-17T18:12:38.311Z,3.78
2022-09-17T18:17:53.164Z,1.95
2022-09-17T18:23:04.402Z,4.00
2022-09-17T18:28:08.778Z,2.97
2022-09-17T18:33:15.246Z,2.35
2022-09-17T18:38:28.464Z,4.40
2022-09-17T18:43:35.599Z,1.30
2022-09-17T18:48:48.533Z,4.43
2022-09-17T18:53:59.212Z,2.38
2022-09-17T18:59:09.912Z,2.33
2022-09-17T19:04:19.054Z,3.37
2022-09-17T19:09:27.891Z,2.13
2022-09-17T19:14:34.378Z,2.10
2022-09-17T19:19:39.454Z,2.10
2022-09-17T19:24:48.870Z,3.50
2022-09-17T19:29:53.449Z,3.00
2022-09-17T19:35:03.411Z,1.47
2022-09-17T19:40:22.135Z,5.10
2022-09-17T19:45:28.930Z,3.03
2022-09-17T19:50:37.651Z,3.13
2022-09-17T19:55:53.041Z,4.03
2022-09-17T20:01:06.254Z,3.27
2022-09-17T20:06:16.120Z,3.23
2022-09-17T20:11:32.433Z,2.73
2022-09-17T20:16:50.419Z,4.97
2022-09-17T20:22:10.499Z,7.90
2022-09-17T20:27:24.292Z,4.83
2022-09-17T20:32:35.003Z,2.60
2022-09-17T20:38:33.391Z,3.30
2022-09-17T20:43:09.390Z,4.50
2022-09-17T20:48:17.325Z,5.40
2022-09-17T20:53:22.274Z,3.73
2022-09-17T20:58:43.075Z,4.40
2022-09-17T21:03:52.054Z,3.10
2022-09-17T21:09:03.098Z,1.20
2022-09-17T21:14:12.205Z,3.50
2022-09-17T21:19:23.240Z,3.03
2022-09-17T21:24:30.382Z,2.70
2022-09-17T21:29:40.832Z,3.93
2022-09-17T21:34:47.714Z,2.93
2022-09-17T21:39:56.499Z,3.30
2022-09-17T21:45:04.001Z,2.37
2022-09-17T21:50:11.428Z,3.00
2022-09-17T21:55:16.253Z,2.97
2022-09-17T22:00:28.655Z,4.70
2022-09-17T22:05:37.862Z,6.57
2022-09-17T22:10:53.613Z,4.80
2022-09-17T22:16:23.113Z,2.27
2022-09-17T22:21:30.215Z,4.13
2022-09-17T22:26:38.208Z,4.10
2022-09-17T22:31:48.948Z,3.43
2022-09-17T22:37:02.273Z,4.50
2022-09-17T22:42:14.135Z,7.70
2022-09-17T22:47:27.713Z,6.80
2022-09-17T22:52:33.796Z,5.13
2022-09-17T22:57:38.726Z,8.00
2022-09-17T23:03:06.695Z,7.93
2022-09-17T23:08:15.562Z,10.67
2022-09-17T23:13:23.904Z,5.67
2022-09-17T23:18:50.422Z,7.33
2022-09-17T23:24:07.193Z,5.57
2022-09-17T23:29:27.061Z,7.50
2022-09-17T23:34:50.986Z,7.53
2022-09-17T23:40:00.455Z,6.07
2022-09-17T23:45:07.793Z,13.00
2022-09-17T23:50:48.037Z,4.00
2022-09-17T23:55:58.190Z,7.57
